Vidanta Elegant — C6WC2 — position and weather

sailwx.info

Track history (hours):
 
Tides and Currents Weather Stations Pressure Air Temp Water Temp Dewpoint Dewpoint Depression Visibility Wind Speed Wind Dir Waves Ship Positions

Vidanta Elegant

Last reported at 2019-Jan-11 09:30 UTC. Time now 2020-Aug-07 04:08 UTC.
Position N 40°35' E 013°53'.
Warning: this ship's position is years out of date!

Length 151 m; draft 5.8 m.

Type: Ship. MMSI: 309695000.

Date/timePositionNaut miles runAvg speedWind from/ knotsBaromVisibWave heightAir tempDewpointWater temp
2019-Jan-11 09:30N 40°35' E 013°53'815.6
2019-Jan-11 09:00N 40°39' E 014°02'713.2
2019-Jan-11 08:30N 40°43' E 014°09'5 9.3
2019-Jan-11 08:00N 40°46' E 014°14'5 9.1
2019-Jan-11 07:30N 40°50' E 014°17'1 0.0
2019-Jan-10 10:22N 40°51' E 014°16'0 0.0
2019-Jan-10 09:40N 40°51' E 014°16'0 0.0
2019-Jan-09 21:22N 40°51' E 014°16'0 0.0
2019-Jan-09 15:58N 40°51' E 014°16'0 0.0
2019-Jan-09 14:28N 40°51' E 014°16'0 0.0
2019-Jan-09 13:28N 40°51' E 014°16'0 0.0
2019-Jan-09 12:34N 40°51' E 014°16'0 0.0
2019-Jan-09 09:52N 40°51' E 014°16'0 0.0
2019-Jan-08 12:52N 40°51' E 014°16'0 0.0
2019-Jan-08 12:30N 40°51' E 014°16'0 0.0
2019-Jan-08 12:00N 40°51' E 014°16'0 0.0
2019-Jan-08 11:19N 40°51' E 014°16'0 0.0
2019-Jan-08 10:57N 40°51' E 014°16'0 0.0
2019-Jan-08 10:23N 40°51' E 014°16'0 0.0
2019-Jan-08 10:00N 40°51' E 014°16'0 0.0
2019-Jan-08 09:30N 40°51' E 014°16'0 0.0
2019-Jan-08 02:04N 40°51' E 014°16'0 0.0
2019-Jan-08 02:00N 40°51' E 014°16'0 0.0
2019-Jan-08 01:30N 40°51' E 014°16'0 0.0
2019-Jan-08 00:56N 40°51' E 014°16'0 0.0
2019-Jan-08 00:29N 40°51' E 014°16'0 0.0
2019-Jan-08 00:00N 40°51' E 014°16'0 0.0
2019-Jan-07 23:26N 40°51' E 014°16'0 0.0
2019-Jan-07 22:53N 40°51' E 014°16'0 0.0
2019-Jan-07 22:29N 40°51' E 014°16'0 0.0
2019-Jan-07 21:55N 40°51' E 014°16'0 0.0
2019-Jan-07 21:24N 40°51' E 014°16'0 0.2
2019-Jan-07 20:59N 40°50' E 014°16'1 3.0
2019-Jan-07 20:30N 40°49' E 014°17'5 9.1
2019-Jan-07 20:00N 40°45' E 014°15'714.6
2019-Jan-07 19:30N 40°39' E 014°09'2 4.4
2019-Jan-07 19:01N 40°38' E 014°11'815.6
2019-Jan-07 18:31N 40°44' E 014°18'2 3.0
2019-Jan-07 18:01N 40°46' E 014°17'2 3.9
2019-Jan-07 17:30N 40°47' E 014°18'1 1.1
2019-Jan-07 17:00N 40°47' E 014°18'1 1.3
2019-Jan-07 16:30N 40°47' E 014°17'3 6.8
2019-Jan-07 16:00N 40°50' E 014°16'0 0.1
2019-Jan-07 15:30N 40°51' E 014°16'0 0.0
2019-Jan-07 14:58N 40°50' E 014°16'0 0.0
2019-Jan-07 14:28N 40°50' E 014°16'0 0.0
2019-Jan-07 13:58N 40°51' E 014°16'0 0.0
2019-Jan-07 13:28N 40°50' E 014°16'0 0.0
2019-Jan-07 12:58N 40°50' E 014°16'0 0.0
2019-Jan-07 12:28N 40°51' E 014°16'0 0.0
2019-Jan-07 11:58N 40°50' E 014°16'0 0.0
2019-Jan-07 11:28N 40°50' E 014°16'0 0.0
2019-Jan-07 10:58N 40°51' E 014°16'0 0.0
2019-Jan-07 10:28N 40°50' E 014°16'0 0.0
2019-Jan-07 09:16N 40°50' E 014°16'0 0.0
2019-Jan-07 08:49N 40°50' E 014°16'0 0.0
2019-Jan-07 08:22N 40°51' E 014°16'0 0.0
2019-Jan-07 07:52N 40°50' E 014°16'0 0.0
2019-Jan-07 07:22N 40°50' E 014°16'0 0.0
2019-Jan-07 06:52N 40°50' E 014°16'0 0.0
2019-Jan-07 06:22N 40°51' E 014°16'0 0.0
2019-Jan-07 05:52N 40°50' E 014°16'0 0.0
2019-Jan-07 05:25N 40°50' E 014°16'0 0.0
2019-Jan-07 04:55N 40°51' E 014°16'0 0.0
2019-Jan-07 04:25N 40°50' E 014°16'0 0.0
2019-Jan-07 03:55N 40°50' E 014°16'0 0.0
2019-Jan-07 03:25N 40°50' E 014°16'0 0.0
2019-Jan-07 02:58N 40°51' E 014°16'0 0.0
2019-Jan-07 02:28N 40°50' E 014°16'0 0.0
2019-Jan-07 01:58N 40°50' E 014°16'0 0.0
2019-Jan-07 01:28N 40°50' E 014°16'0 0.0
2019-Jan-07 00:55N 40°50' E 014°16'0 0.0
2019-Jan-07 00:28N 40°50' E 014°16'0 0.0
2019-Jan-06 23:58N 40°50' E 014°16'0 0.0
2019-Jan-06 23:25N 40°50' E 014°16'0 0.0
2019-Jan-06 22:58N 40°51' E 014°16'0 0.0
2019-Jan-06 22:28N 40°50' E 014°16'0 0.0
2019-Jan-06 21:58N 40°51' E 014°16'0 0.0
2019-Jan-06 21:28N 40°51' E 014°16'0 0.0
2019-Jan-06 20:58N 40°50' E 014°16'0 0.0
2019-Jan-06 20:28N 40°50' E 014°16'0 0.0
2019-Jan-06 19:49N 40°50' E 014°16'0 0.0
2019-Jan-06 19:19N 40°50' E 014°16'0 0.0
2019-Jan-06 18:49N 40°51' E 014°16'0 0.0
2019-Jan-06 18:22N 40°50' E 014°16'0 0.0
2019-Jan-06 17:52N 40°50' E 014°16'0 0.0
2019-Jan-06 17:22N 40°50' E 014°16'0 0.0
2019-Jan-06 16:52N 40°50' E 014°16'0 0.0
2019-Jan-06 16:22N 40°50' E 014°16'0 0.0
2019-Jan-06 15:55N 40°51' E 014°16'0 0.0
2019-Jan-06 15:22N 40°50' E 014°16'0 0.0
2019-Jan-06 14:55N 40°50' E 014°16'0 0.0
2019-Jan-06 14:25N 40°50' E 014°16'0 0.0
2019-Jan-06 13:55N 40°50' E 014°16'0 0.0
2019-Jan-06 13:25N 40°50' E 014°16'0 0.0
2019-Jan-06 12:58N 40°51' E 014°16'0 0.0
2019-Jan-06 12:28N 40°50' E 014°16'0 0.0
2019-Jan-06 11:58N 40°51' E 014°16'0 0.0
2019-Jan-06 11:28N 40°51' E 014°16'0 0.0
2019-Jan-06 10:58N 40°50' E 014°16'0 0.0
2019-Jan-06 10:28N 40°50' E 014°16'0 0.0
2019-Jan-06 09:58N 40°51' E 014°16'0 0.0
2019-Jan-06 09:28N 40°50' E 014°16'0 0.0
2019-Jan-06 08:58N 40°50' E 014°16'0 0.0
2019-Jan-06 08:28N 40°50' E 014°16'0 0.0
2019-Jan-06 07:58N 40°51' E 014°16'0 0.0
2019-Jan-06 07:28N 40°51' E 014°16'0 0.0
2019-Jan-06 06:58N 40°50' E 014°16'0 0.0
2019-Jan-06 06:28N 40°51' E 014°16'0 0.0
2019-Jan-06 05:49N 40°51' E 014°16'0 0.0
2019-Jan-06 05:19N 40°50' E 014°16'0 0.0
2019-Jan-06 04:52N 40°50' E 014°16'0 0.0
2019-Jan-06 04:22N 40°51' E 014°16'0 0.0
2019-Jan-06 03:52N 40°50' E 014°16'0 0.0
2019-Jan-06 03:22N 40°50' E 014°16'0 0.0
2019-Jan-06 02:52N 40°51' E 014°16'0 0.0
2019-Jan-06 02:22N 40°50' E 014°16'0 0.0
2019-Jan-06 01:49N 40°50' E 014°16'0 0.0
2019-Jan-06 01:25N 40°50' E 014°16'0 0.0
2019-Jan-06 00:55N 40°50' E 014°16'0 0.0
2019-Jan-06 00:25N 40°50' E 014°16'0 0.0
2019-Jan-05 23:55N 40°50' E 014°16'0 0.0
2019-Jan-05 23:25N 40°51' E 014°16'0 0.0
2019-Jan-05 22:58N 40°51' E 014°16'0 0.0
2019-Jan-05 22:28N 40°51' E 014°16'0 0.0
2019-Jan-05 21:58N 40°51' E 014°16'0 0.0
2019-Jan-05 21:28N 40°50' E 014°16'0 0.0
2019-Jan-05 20:58N 40°50' E 014°16'0 0.0
2019-Jan-05 20:28N 40°50' E 014°16'0 0.0
2019-Jan-05 19:58N 40°50' E 014°16'0 0.0
2019-Jan-05 19:28N 40°50' E 014°16'0 0.0
2019-Jan-05 18:58N 40°50' E 014°16'0 0.0
2019-Jan-05 18:28N 40°50' E 014°16'0 0.0
2019-Jan-05 17:58N 40°50' E 014°16'0 0.0
2019-Jan-05 17:28N 40°50' E 014°16'0 0.0
2019-Jan-05 16:58N 40°50' E 014°16'0 0.0
2019-Jan-05 16:28N 40°51' E 014°16'0 0.0
2019-Jan-05 15:49N 40°50' E 014°16'0 0.0
2019-Jan-05 15:19N 40°50' E 014°16'0 0.0
2019-Jan-05 14:52N 40°50' E 014°16'0 0.0
2019-Jan-05 14:22N 40°51' E 014°16'0 0.0
2019-Jan-05 13:52N 40°50' E 014°16'0 0.0
2019-Jan-05 13:22N 40°50' E 014°16'0 0.0
2019-Jan-05 12:52N 40°50' E 014°16'0 0.0
2019-Jan-05 12:22N 40°50' E 014°16'0 0.0
2019-Jan-05 11:55N 40°50' E 014°16'0 0.0
2019-Jan-05 11:25N 40°50' E 014°16'0 0.0
2019-Jan-05 10:55N 40°51' E 014°16'0 0.0
2019-Jan-05 10:25N 40°51' E 014°16'0 0.0
2019-Jan-05 07:40N 40°50' E 014°16'0 0.0
2019-Jan-05 07:28N 40°51' E 014°16'0 0.0
2019-Jan-05 06:58N 40°51' E 014°16'0 0.0
2019-Jan-05 06:28N 40°50' E 014°16'0 0.0
2019-Jan-05 05:58N 40°50' E 014°16'0 0.0
2019-Jan-05 05:28N 40°50' E 014°16'0 0.0
2019-Jan-05 04:46N 40°50' E 014°16'0 0.0
2019-Jan-05 04:16N 40°51' E 014°16'0 0.0
2019-Jan-05 03:58N 40°51' E 014°16'0 0.0
2019-Jan-05 03:28N 40°50' E 014°16'0 0.0
2019-Jan-05 02:58N 40°50' E 014°16'0 0.0
2019-Jan-05 02:28N 40°51' E 014°16'0 0.0
2019-Jan-05 01:49N 40°50' E 014°16'0 0.0
2019-Jan-05 01:19N 40°50' E 014°16'0 0.0
2019-Jan-05 00:52N 40°50' E 014°16'0 0.0
2019-Jan-05 00:22N 40°51' E 014°16'0 0.0
2019-Jan-04 23:52N 40°50' E 014°16'0 0.0
2019-Jan-04 23:22N 40°50' E 014°16'0 0.0
2019-Jan-04 22:52N 40°50' E 014°16'0 0.0
2019-Jan-04 22:25N 40°50' E 014°16'0 0.0
2019-Jan-04 21:55N 40°50' E 014°16'0 0.0
2019-Jan-04 21:25N 40°50' E 014°16'0 0.0
2019-Jan-04 20:52N 40°50' E 014°16'0 0.0
2019-Jan-04 20:25N 40°50' E 014°16'0 0.0
2019-Jan-04 19:55N 40°50' E 014°16'0 0.0
2019-Jan-04 19:28N 40°50' E 014°16'0 0.0
2019-Jan-04 18:58N 40°50' E 014°16'0 0.0
2019-Jan-04 18:28N 40°50' E 014°16'0 0.0
2019-Jan-04 17:58N 40°50' E 014°16'0 0.0
2019-Jan-04 17:25N 40°50' E 014°16'0 0.0
2019-Jan-04 16:58N 40°50' E 014°16'0 0.0
2019-Jan-04 16:28N 40°50' E 014°16'0 0.0
2019-Jan-04 15:58N 40°50' E 014°16'0 0.0
2019-Jan-04 15:28N 40°50' E 014°16'0 0.0
2019-Jan-04 14:58N 40°50' E 014°16'0 0.0
2019-Jan-04 14:28N 40°50' E 014°16'0 0.0
2019-Jan-04 13:58N 40°50' E 014°16'0 0.0
2019-Jan-04 13:28N 40°50' E 014°16'0 0.0
2019-Jan-04 12:58N 40°51' E 014°16'0 0.0
2019-Jan-04 12:19N 40°50' E 014°16'0 0.0
2019-Jan-04 11:49N 40°51' E 014°16'0 0.0
2019-Jan-04 11:22N 40°50' E 014°16'0 0.0
2019-Jan-04 10:52N 40°50' E 014°16'0 0.0
2019-Jan-04 10:22N 40°50' E 014°16'0 0.0
2019-Jan-04 09:52N 40°50' E 014°16'0 0.0
2019-Jan-04 09:22N 40°50' E 014°16'0 0.0
2019-Jan-04 08:52N 40°50' E 014°16'0 0.0
2019-Jan-04 08:25N 40°50' E 014°16'0 0.0
2019-Jan-04 07:55N 40°50' E 014°16'0 0.0
2019-Jan-04 07:25N 40°51' E 014°16'0 0.0
2019-Jan-04 06:55N 40°50' E 014°16'0 0.0
2019-Jan-04 06:25N 40°50' E 014°16'0 0.0
2019-Jan-04 05:55N 40°50' E 014°16'0 0.0
2019-Jan-04 05:28N 40°50' E 014°16'0 0.0
2019-Jan-04 04:58N 40°51' E 014°16'0 0.0
2019-Jan-04 04:28N 40°50' E 014°16'0 0.0
2019-Jan-04 03:58N 40°50' E 014°16'0 0.0
2019-Jan-04 03:28N 40°50' E 014°16'0 0.0
2019-Jan-04 02:58N 40°51' E 014°16'0 0.0
2019-Jan-04 02:28N 40°51' E 014°16'0 0.0
2019-Jan-04 01:58N 40°50' E 014°16'0 0.0
2019-Jan-04 01:28N 40°50' E 014°16'0 0.0
2019-Jan-04 00:58N 40°50' E 014°16'0 0.0
2019-Jan-04 00:28N 40°50' E 014°16'0 0.0
2019-Jan-03 23:58N 40°50' E 014°16'0 0.0
2019-Jan-03 23:28N 40°51' E 014°16'0 0.0
2019-Jan-03 22:58N 40°51' E 014°16'0 0.0
2019-Jan-03 22:16N 40°51' E 014°16'0 0.0
2019-Jan-03 21:49N 40°51' E 014°16'0 0.0
2019-Jan-03 21:22N 40°50' E 014°16'0 0.0
2019-Jan-03 20:52N 40°51' E 014°16'0 0.0
2019-Jan-03 20:19N 40°50' E 014°16'0 0.0
2019-Jan-03 19:52N 40°50' E 014°16'0 0.0
2019-Jan-03 19:22N 40°50' E 014°16'0 0.0
2019-Jan-03 18:52N 40°50' E 014°16'0 0.0
2019-Jan-03 18:25N 40°50' E 014°16'0 0.0
2019-Jan-03 17:55N 40°50' E 014°16'0 0.0
2019-Jan-03 17:25N 40°50' E 014°16'0 0.0
2019-Jan-03 16:55N 40°50' E 014°16'0 0.0
2019-Jan-03 16:25N 40°50' E 014°16'0 0.0
2019-Jan-03 15:58N 40°51' E 014°16'0 0.0
2019-Jan-03 15:28N 40°50' E 014°16'0 0.0
2019-Jan-03 14:58N 40°51' E 014°16'0 0.0
2019-Jan-03 14:28N 40°51' E 014°16'0 0.0
2019-Jan-03 13:58N 40°50' E 014°16'0 0.0
2019-Jan-03 13:28N 40°50' E 014°16'0 0.0
2019-Jan-03 12:55N 40°50' E 014°16'0 0.0
2019-Jan-03 12:28N 40°51' E 014°16'0 0.0
2019-Jan-03 11:58N 40°51' E 014°16'0 0.0
2019-Jan-03 11:28N 40°50' E 014°16'0 0.0
2019-Jan-03 10:58N 40°50' E 014°16'0 0.0
2019-Jan-03 10:19N 40°51' E 014°16'0 0.0
2019-Jan-03 09:58N 40°51' E 014°16'0 0.0
2019-Jan-03 09:28N 40°51' E 014°16'0 0.0
2019-Jan-03 08:58N 40°51' E 014°16'0 0.0
2019-Jan-03 08:16N 40°51' E 014°16'0 0.0
2019-Jan-03 07:49N 40°51' E 014°16'0 0.0
2019-Jan-03 07:22N 40°51' E 014°16'0 0.0
2019-Jan-03 06:52N 40°51' E 014°16'0 0.0
2019-Jan-03 06:22N 40°51' E 014°16'0 0.0
2019-Jan-03 05:52N 40°51' E 014°16'0 0.0
2019-Jan-03 05:22N 40°51' E 014°16'0 0.0
2019-Jan-03 04:55N 40°51' E 014°16'0 0.0
2019-Jan-03 04:25N 40°51' E 014°16'0 0.0
2019-Jan-03 03:55N 40°51' E 014°16'0 0.0
2019-Jan-03 03:25N 40°51' E 014°16'0 0.0
2019-Jan-03 02:55N 40°51' E 014°16'0 0.0
2019-Jan-03 02:25N 40°51' E 014°16'0 0.0
2019-Jan-03 01:58N 40°51' E 014°16'0 0.0
2019-Jan-03 01:28N 40°51' E 014°16'0 0.0
2019-Jan-03 00:58N 40°51' E 014°16'0 0.0
2019-Jan-03 00:28N 40°51' E 014°16'0 0.0
2019-Jan-02 23:58N 40°51' E 014°16'0 0.0
2019-Jan-02 23:28N 40°51' E 014°16'0 0.0
2019-Jan-02 22:58N 40°51' E 014°16'0 0.0
2019-Jan-02 22:28N 40°51' E 014°16'0 0.0
2019-Jan-02 21:58N 40°51' E 014°16'0 0.0
2019-Jan-02 21:28N 40°51' E 014°16'0 0.0
2019-Jan-02 20:58N 40°51' E 014°16'0 0.0
2019-Jan-02 20:28N 40°51' E 014°16'0 0.0
2019-Jan-02 19:58N 40°51' E 014°16'0 0.0
2019-Jan-02 19:28N 40°51' E 014°16'0 0.0
2019-Jan-02 18:49N 40°51' E 014°16'0 0.0
2019-Jan-02 18:19N 40°51' E 014°16'0 0.0
2019-Jan-02 17:52N 40°51' E 014°16'0 0.0
2019-Jan-02 17:22N 40°51' E 014°16'0 0.0
2019-Jan-02 16:52N 40°51' E 014°16'0 0.0
2019-Jan-02 16:22N 40°51' E 014°16'0 0.0
2019-Jan-02 15:52N 40°51' E 014°16'0 0.0
2019-Jan-02 15:22N 40°51' E 014°16'0 0.0
2019-Jan-02 14:55N 40°51' E 014°16'0 0.0
2019-Jan-02 14:25N 40°51' E 014°16'0 0.0
2019-Jan-02 13:55N 40°51' E 014°16'0 0.0
2019-Jan-02 13:25N 40°51' E 014°16'0 0.0
2019-Jan-02 12:55N 40°51' E 014°16'0 0.0
2019-Jan-02 12:25N 40°51' E 014°16'0 0.0
2019-Jan-02 11:58N 40°51' E 014°16'0 0.0
2019-Jan-02 11:28N 40°51' E 014°16'0 0.0
2019-Jan-02 10:58N 40°51' E 014°16'0 0.0
2019-Jan-02 10:28N 40°51' E 014°16'0 0.0
2019-Jan-02 09:58N 40°51' E 014°16'0 0.0
2019-Jan-02 09:28N 40°51' E 014°16'0 0.0
2019-Jan-02 08:58N 40°51' E 014°16'0 0.0
2019-Jan-02 08:28N 40°51' E 014°16'0 0.0
2019-Jan-02 07:58N 40°51' E 014°16'0 0.0
2019-Jan-02 07:28N 40°51' E 014°16'0 0.0
2019-Jan-02 06:58N 40°51' E 014°16'0 0.0
2019-Jan-02 06:19N 40°51' E 014°16'0 0.0
2019-Jan-02 05:58N 40°51' E 014°16'0 0.0
2019-Jan-02 05:19N 40°51' E 014°16'0 0.0
2019-Jan-02 04:49N 40°51' E 014°16'0 0.0
2019-Jan-02 04:19N 40°51' E 014°16'0 0.0
2019-Jan-02 03:52N 40°51' E 014°16'0 0.0
2019-Jan-02 03:22N 40°51' E 014°16'0 0.0
2019-Jan-02 02:52N 40°51' E 014°16'0 0.0
2019-Jan-02 02:22N 40°51' E 014°16'0 0.0
2019-Jan-02 01:52N 40°51' E 014°16'0 0.0
2019-Jan-02 01:22N 40°51' E 014°16'0 0.0
2019-Jan-02 00:55N 40°51' E 014°16'0 0.0
2019-Jan-02 00:25N 40°51' E 014°16'0 0.0
2019-Jan-01 23:55N 40°51' E 014°16'0 0.0
2019-Jan-01 23:25N 40°51' E 014°16'0 0.0
2019-Jan-01 22:55N 40°51' E 014°16'0 0.0
2019-Jan-01 22:25N 40°51' E 014°16'0 0.0
2019-Jan-01 21:58N 40°51' E 014°16'0 0.0
2019-Jan-01 21:28N 40°51' E 014°16'0 0.0
2019-Jan-01 20:58N 40°51' E 014°16'0 0.0
2019-Jan-01 20:28N 40°51' E 014°16'0 0.0
2019-Jan-01 19:58N 40°51' E 014°16'0 0.0
2019-Jan-01 19:28N 40°51' E 014°16'0 0.0
2019-Jan-01 18:58N 40°51' E 014°16'0 0.0
2019-Jan-01 18:28N 40°51' E 014°16'0 0.0
2019-Jan-01 17:58N 40°51' E 014°16'0 0.0
2019-Jan-01 17:16N 40°51' E 014°16'0 0.0
2019-Jan-01 16:58N 40°51' E 014°16'0 0.0
2019-Jan-01 16:28N 40°51' E 014°16'0 0.0
2019-Jan-01 15:58N 40°51' E 014°16'0 0.0
2019-Jan-01 15:19N 40°51' E 014°16'0 0.0
2019-Jan-01 14:49N 40°51' E 014°16'0 0.0
2019-Jan-01 14:19N 40°51' E 014°16'0 0.0
2019-Jan-01 13:52N 40°51' E 014°16'0 0.0
2019-Jan-01 13:22N 40°51' E 014°16'0 0.0
2019-Jan-01 12:52N 40°51' E 014°16'0 0.0
2019-Jan-01 12:22N 40°51' E 014°16'0 0.0
2019-Jan-01 11:52N 40°51' E 014°16'0 0.0
2019-Jan-01 11:22N 40°51' E 014°16'0 0.0
2019-Jan-01 10:55N 40°51' E 014°16'0 0.0
2019-Jan-01 10:25N 40°51' E 014°16'0 0.0
2019-Jan-01 09:55N 40°51' E 014°16'  
Track history (hours):
 
Tides and Currents Weather Stations Pressure Air Temp Water Temp Dewpoint Dewpoint Depression Visibility Wind Speed Wind Dir Waves Ship Positions

Vidanta Elegant

Last reported at 2019-Jan-11 09:30 UTC. Time now 2020-Aug-07 04:08 UTC.
Position N 40°35' E 013°53'.
Warning: this ship's position is years out of date!

Length 151 m; draft 5.8 m.

Type: Ship. MMSI: 309695000.

Date/timePositionNaut miles runAvg speedWind from/ knotsBaromVisibWave heightAir tempDewpointWater temp
2019-Jan-11 09:30N 40°35' E 013°53'815.6
2019-Jan-11 09:00N 40°39' E 014°02'713.2
2019-Jan-11 08:30N 40°43' E 014°09'5 9.3
2019-Jan-11 08:00N 40°46' E 014°14'5 9.1
2019-Jan-11 07:30N 40°50' E 014°17'1 0.0
2019-Jan-10 10:22N 40°51' E 014°16'0 0.0
2019-Jan-10 09:40N 40°51' E 014°16'0 0.0
2019-Jan-09 21:22N 40°51' E 014°16'0 0.0
2019-Jan-09 15:58N 40°51' E 014°16'0 0.0
2019-Jan-09 14:28N 40°51' E 014°16'0 0.0
2019-Jan-09 13:28N 40°51' E 014°16'0 0.0
2019-Jan-09 12:34N 40°51' E 014°16'0 0.0
2019-Jan-09 09:52N 40°51' E 014°16'0 0.0
2019-Jan-08 12:52N 40°51' E 014°16'0 0.0
2019-Jan-08 12:30N 40°51' E 014°16'0 0.0
2019-Jan-08 12:00N 40°51' E 014°16'0 0.0
2019-Jan-08 11:19N 40°51' E 014°16'0 0.0
2019-Jan-08 10:57N 40°51' E 014°16'0 0.0
2019-Jan-08 10:23N 40°51' E 014°16'0 0.0
2019-Jan-08 10:00N 40°51' E 014°16'0 0.0
2019-Jan-08 09:30N 40°51' E 014°16'0 0.0
2019-Jan-08 02:04N 40°51' E 014°16'0 0.0
2019-Jan-08 02:00N 40°51' E 014°16'0 0.0
2019-Jan-08 01:30N 40°51' E 014°16'0 0.0
2019-Jan-08 00:56N 40°51' E 014°16'0 0.0
2019-Jan-08 00:29N 40°51' E 014°16'0 0.0
2019-Jan-08 00:00N 40°51' E 014°16'0 0.0
2019-Jan-07 23:26N 40°51' E 014°16'0 0.0
2019-Jan-07 22:53N 40°51' E 014°16'0 0.0
2019-Jan-07 22:29N 40°51' E 014°16'0 0.0
2019-Jan-07 21:55N 40°51' E 014°16'0 0.0
2019-Jan-07 21:24N 40°51' E 014°16'0 0.2
2019-Jan-07 20:59N 40°50' E 014°16'1 3.0
2019-Jan-07 20:30N 40°49' E 014°17'5 9.1
2019-Jan-07 20:00N 40°45' E 014°15'714.6
2019-Jan-07 19:30N 40°39' E 014°09'2 4.4
2019-Jan-07 19:01N 40°38' E 014°11'815.6
2019-Jan-07 18:31N 40°44' E 014°18'2 3.0
2019-Jan-07 18:01N 40°46' E 014°17'2 3.9
2019-Jan-07 17:30N 40°47' E 014°18'1 1.1
2019-Jan-07 17:00N 40°47' E 014°18'1 1.3
2019-Jan-07 16:30N 40°47' E 014°17'3 6.8
2019-Jan-07 16:00N 40°50' E 014°16'0 0.1
2019-Jan-07 15:30N 40°51' E 014°16'0 0.0
2019-Jan-07 14:58N 40°50' E 014°16'0 0.0
2019-Jan-07 14:28N 40°50' E 014°16'0 0.0
2019-Jan-07 13:58N 40°51' E 014°16'0 0.0
2019-Jan-07 13:28N 40°50' E 014°16'0 0.0
2019-Jan-07 12:58N 40°50' E 014°16'0 0.0
2019-Jan-07 12:28N 40°51' E 014°16'0 0.0
2019-Jan-07 11:58N 40°50' E 014°16'0 0.0
2019-Jan-07 11:28N 40°50' E 014°16'0 0.0
2019-Jan-07 10:58N 40°51' E 014°16'0 0.0
2019-Jan-07 10:28N 40°50' E 014°16'0 0.0
2019-Jan-07 09:16N 40°50' E 014°16'0 0.0
2019-Jan-07 08:49N 40°50' E 014°16'0 0.0
2019-Jan-07 08:22N 40°51' E 014°16'0 0.0
2019-Jan-07 07:52N 40°50' E 014°16'0 0.0
2019-Jan-07 07:22N 40°50' E 014°16'0 0.0
2019-Jan-07 06:52N 40°50' E 014°16'0 0.0
2019-Jan-07 06:22N 40°51' E 014°16'0 0.0
2019-Jan-07 05:52N 40°50' E 014°16'0 0.0
2019-Jan-07 05:25N 40°50' E 014°16'0 0.0
2019-Jan-07 04:55N 40°51' E 014°16'0 0.0
2019-Jan-07 04:25N 40°50' E 014°16'0 0.0
2019-Jan-07 03:55N 40°50' E 014°16'0 0.0
2019-Jan-07 03:25N 40°50' E 014°16'0 0.0
2019-Jan-07 02:58N 40°51' E 014°16'0 0.0
2019-Jan-07 02:28N 40°50' E 014°16'0 0.0
2019-Jan-07 01:58N 40°50' E 014°16'0 0.0
2019-Jan-07 01:28N 40°50' E 014°16'0 0.0
2019-Jan-07 00:55N 40°50' E 014°16'0 0.0
2019-Jan-07 00:28N 40°50' E 014°16'0 0.0
2019-Jan-06 23:58N 40°50' E 014°16'0 0.0
2019-Jan-06 23:25N 40°50' E 014°16'0 0.0
2019-Jan-06 22:58N 40°51' E 014°16'0 0.0
2019-Jan-06 22:28N 40°50' E 014°16'0 0.0
2019-Jan-06 21:58N 40°51' E 014°16'0 0.0
2019-Jan-06 21:28N 40°51' E 014°16'0 0.0
2019-Jan-06 20:58N 40°50' E 014°16'0 0.0
2019-Jan-06 20:28N 40°50' E 014°16'0 0.0
2019-Jan-06 19:49N 40°50' E 014°16'0 0.0
2019-Jan-06 19:19N 40°50' E 014°16'0 0.0
2019-Jan-06 18:49N 40°51' E 014°16'0 0.0
2019-Jan-06 18:22N 40°50' E 014°16'0 0.0
2019-Jan-06 17:52N 40°50' E 014°16'0 0.0
2019-Jan-06 17:22N 40°50' E 014°16'0 0.0
2019-Jan-06 16:52N 40°50' E 014°16'0 0.0
2019-Jan-06 16:22N 40°50' E 014°16'0 0.0
2019-Jan-06 15:55N 40°51' E 014°16'0 0.0
2019-Jan-06 15:22N 40°50' E 014°16'0 0.0
2019-Jan-06 14:55N 40°50' E 014°16'0 0.0
2019-Jan-06 14:25N 40°50' E 014°16'0 0.0
2019-Jan-06 13:55N 40°50' E 014°16'0 0.0
2019-Jan-06 13:25N 40°50' E 014°16'0 0.0
2019-Jan-06 12:58N 40°51' E 014°16'0 0.0
2019-Jan-06 12:28N 40°50' E 014°16'0 0.0
2019-Jan-06 11:58N 40°51' E 014°16'0 0.0
2019-Jan-06 11:28N 40°51' E 014°16'0 0.0
2019-Jan-06 10:58N 40°50' E 014°16'0 0.0
2019-Jan-06 10:28N 40°50' E 014°16'0 0.0
2019-Jan-06 09:58N 40°51' E 014°16'0 0.0
2019-Jan-06 09:28N 40°50' E 014°16'0 0.0
2019-Jan-06 08:58N 40°50' E 014°16'0 0.0
2019-Jan-06 08:28N 40°50' E 014°16'0 0.0
2019-Jan-06 07:58N 40°51' E 014°16'0 0.0
2019-Jan-06 07:28N 40°51' E 014°16'0 0.0
2019-Jan-06 06:58N 40°50' E 014°16'0 0.0
2019-Jan-06 06:28N 40°51' E 014°16'0 0.0
2019-Jan-06 05:49N 40°51' E 014°16'0 0.0
2019-Jan-06 05:19N 40°50' E 014°16'0 0.0
2019-Jan-06 04:52N 40°50' E 014°16'0 0.0
2019-Jan-06 04:22N 40°51' E 014°16'0 0.0
2019-Jan-06 03:52N 40°50' E 014°16'0 0.0
2019-Jan-06 03:22N 40°50' E 014°16'0 0.0
2019-Jan-06 02:52N 40°51' E 014°16'0 0.0
2019-Jan-06 02:22N 40°50' E 014°16'0 0.0
2019-Jan-06 01:49N 40°50' E 014°16'0 0.0
2019-Jan-06 01:25N 40°50' E 014°16'0 0.0
2019-Jan-06 00:55N 40°50' E 014°16'0 0.0
2019-Jan-06 00:25N 40°50' E 014°16'0 0.0
2019-Jan-05 23:55N 40°50' E 014°16'0 0.0
2019-Jan-05 23:25N 40°51' E 014°16'0 0.0
2019-Jan-05 22:58N 40°51' E 014°16'0 0.0
2019-Jan-05 22:28N 40°51' E 014°16'0 0.0
2019-Jan-05 21:58N 40°51' E 014°16'0 0.0
2019-Jan-05 21:28N 40°50' E 014°16'0 0.0
2019-Jan-05 20:58N 40°50' E 014°16'0 0.0
2019-Jan-05 20:28N 40°50' E 014°16'0 0.0
2019-Jan-05 19:58N 40°50' E 014°16'0 0.0
2019-Jan-05 19:28N 40°50' E 014°16'0 0.0
2019-Jan-05 18:58N 40°50' E 014°16'0 0.0
2019-Jan-05 18:28N 40°50' E 014°16'0 0.0
2019-Jan-05 17:58N 40°50' E 014°16'0 0.0
2019-Jan-05 17:28N 40°50' E 014°16'0 0.0
2019-Jan-05 16:58N 40°50' E 014°16'0 0.0
2019-Jan-05 16:28N 40°51' E 014°16'0 0.0
2019-Jan-05 15:49N 40°50' E 014°16'0 0.0
2019-Jan-05 15:19N 40°50' E 014°16'0 0.0
2019-Jan-05 14:52N 40°50' E 014°16'0 0.0
2019-Jan-05 14:22N 40°51' E 014°16'0 0.0
2019-Jan-05 13:52N 40°50' E 014°16'0 0.0
2019-Jan-05 13:22N 40°50' E 014°16'0 0.0
2019-Jan-05 12:52N 40°50' E 014°16'0 0.0
2019-Jan-05 12:22N 40°50' E 014°16'0 0.0
2019-Jan-05 11:55N 40°50' E 014°16'0 0.0
2019-Jan-05 11:25N 40°50' E 014°16'0 0.0
2019-Jan-05 10:55N 40°51' E 014°16'0 0.0
2019-Jan-05 10:25N 40°51' E 014°16'0 0.0
2019-Jan-05 07:40N 40°50' E 014°16'0 0.0
2019-Jan-05 07:28N 40°51' E 014°16'0 0.0
2019-Jan-05 06:58N 40°51' E 014°16'0 0.0
2019-Jan-05 06:28N 40°50' E 014°16'0 0.0
2019-Jan-05 05:58N 40°50' E 014°16'0 0.0
2019-Jan-05 05:28N 40°50' E 014°16'0 0.0
2019-Jan-05 04:46N 40°50' E 014°16'0 0.0
2019-Jan-05 04:16N 40°51' E 014°16'0 0.0
2019-Jan-05 03:58N 40°51' E 014°16'0 0.0
2019-Jan-05 03:28N 40°50' E 014°16'0 0.0
2019-Jan-05 02:58N 40°50' E 014°16'0 0.0
2019-Jan-05 02:28N 40°51' E 014°16'0 0.0
2019-Jan-05 01:49N 40°50' E 014°16'0 0.0
2019-Jan-05 01:19N 40°50' E 014°16'0 0.0
2019-Jan-05 00:52N 40°50' E 014°16'0 0.0
2019-Jan-05 00:22N 40°51' E 014°16'0 0.0
2019-Jan-04 23:52N 40°50' E 014°16'0 0.0
2019-Jan-04 23:22N 40°50' E 014°16'0 0.0
2019-Jan-04 22:52N 40°50' E 014°16'0 0.0
2019-Jan-04 22:25N 40°50' E 014°16'0 0.0
2019-Jan-04 21:55N 40°50' E 014°16'0 0.0
2019-Jan-04 21:25N 40°50' E 014°16'0 0.0
2019-Jan-04 20:52N 40°50' E 014°16'0 0.0
2019-Jan-04 20:25N 40°50' E 014°16'0 0.0
2019-Jan-04 19:55N 40°50' E 014°16'0 0.0
2019-Jan-04 19:28N 40°50' E 014°16'0 0.0
2019-Jan-04 18:58N 40°50' E 014°16'0 0.0
2019-Jan-04 18:28N 40°50' E 014°16'0 0.0
2019-Jan-04 17:58N 40°50' E 014°16'0 0.0
2019-Jan-04 17:25N 40°50' E 014°16'0 0.0
2019-Jan-04 16:58N 40°50' E 014°16'0 0.0
2019-Jan-04 16:28N 40°50' E 014°16'0 0.0
2019-Jan-04 15:58N 40°50' E 014°16'0 0.0
2019-Jan-04 15:28N 40°50' E 014°16'0 0.0
2019-Jan-04 14:58N 40°50' E 014°16'0 0.0
2019-Jan-04 14:28N 40°50' E 014°16'0 0.0
2019-Jan-04 13:58N 40°50' E 014°16'0 0.0
2019-Jan-04 13:28N 40°50' E 014°16'0 0.0
2019-Jan-04 12:58N 40°51' E 014°16'0 0.0
2019-Jan-04 12:19N 40°50' E 014°16'0 0.0
2019-Jan-04 11:49N 40°51' E 014°16'0 0.0
2019-Jan-04 11:22N 40°50' E 014°16'0 0.0
2019-Jan-04 10:52N 40°50' E 014°16'0 0.0
2019-Jan-04 10:22N 40°50' E 014°16'0 0.0
2019-Jan-04 09:52N 40°50' E 014°16'0 0.0
2019-Jan-04 09:22N 40°50' E 014°16'0 0.0
2019-Jan-04 08:52N 40°50' E 014°16'0 0.0
2019-Jan-04 08:25N 40°50' E 014°16'0 0.0
2019-Jan-04 07:55N 40°50' E 014°16'0 0.0
2019-Jan-04 07:25N 40°51' E 014°16'0 0.0
2019-Jan-04 06:55N 40°50' E 014°16'0 0.0
2019-Jan-04 06:25N 40°50' E 014°16'0 0.0
2019-Jan-04 05:55N 40°50' E 014°16'0 0.0
2019-Jan-04 05:28N 40°50' E 014°16'0 0.0
2019-Jan-04 04:58N 40°51' E 014°16'0 0.0
2019-Jan-04 04:28N 40°50' E 014°16'0 0.0
2019-Jan-04 03:58N 40°50' E 014°16'0 0.0
2019-Jan-04 03:28N 40°50' E 014°16'0 0.0
2019-Jan-04 02:58N 40°51' E 014°16'0 0.0
2019-Jan-04 02:28N 40°51' E 014°16'0 0.0
2019-Jan-04 01:58N 40°50' E 014°16'0 0.0
2019-Jan-04 01:28N 40°50' E 014°16'0 0.0
2019-Jan-04 00:58N 40°50' E 014°16'0 0.0
2019-Jan-04 00:28N 40°50' E 014°16'0 0.0
2019-Jan-03 23:58N 40°50' E 014°16'0 0.0
2019-Jan-03 23:28N 40°51' E 014°16'0 0.0
2019-Jan-03 22:58N 40°51' E 014°16'0 0.0
2019-Jan-03 22:16N 40°51' E 014°16'0 0.0
2019-Jan-03 21:49N 40°51' E 014°16'0 0.0
2019-Jan-03 21:22N 40°50' E 014°16'0 0.0
2019-Jan-03 20:52N 40°51' E 014°16'0 0.0
2019-Jan-03 20:19N 40°50' E 014°16'0 0.0
2019-Jan-03 19:52N 40°50' E 014°16'0 0.0
2019-Jan-03 19:22N 40°50' E 014°16'0 0.0
2019-Jan-03 18:52N 40°50' E 014°16'0 0.0
2019-Jan-03 18:25N 40°50' E 014°16'0 0.0
2019-Jan-03 17:55N 40°50' E 014°16'0 0.0
2019-Jan-03 17:25N 40°50' E 014°16'0 0.0
2019-Jan-03 16:55N 40°50' E 014°16'0 0.0
2019-Jan-03 16:25N 40°50' E 014°16'0 0.0
2019-Jan-03 15:58N 40°51' E 014°16'0 0.0
2019-Jan-03 15:28N 40°50' E 014°16'0 0.0
2019-Jan-03 14:58N 40°51' E 014°16'0 0.0
2019-Jan-03 14:28N 40°51' E 014°16'0 0.0
2019-Jan-03 13:58N 40°50' E 014°16'0 0.0
2019-Jan-03 13:28N 40°50' E 014°16'0 0.0
2019-Jan-03 12:55N 40°50' E 014°16'0 0.0
2019-Jan-03 12:28N 40°51' E 014°16'0 0.0
2019-Jan-03 11:58N 40°51' E 014°16'0 0.0
2019-Jan-03 11:28N 40°50' E 014°16'0 0.0
2019-Jan-03 10:58N 40°50' E 014°16'0 0.0
2019-Jan-03 10:19N 40°51' E 014°16'0 0.0
2019-Jan-03 09:58N 40°51' E 014°16'0 0.0
2019-Jan-03 09:28N 40°51' E 014°16'0 0.0
2019-Jan-03 08:58N 40°51' E 014°16'0 0.0
2019-Jan-03 08:16N 40°51' E 014°16'0 0.0
2019-Jan-03 07:49N 40°51' E 014°16'0 0.0
2019-Jan-03 07:22N 40°51' E 014°16'0 0.0
2019-Jan-03 06:52N 40°51' E 014°16'0 0.0
2019-Jan-03 06:22N 40°51' E 014°16'0 0.0
2019-Jan-03 05:52N 40°51' E 014°16'0 0.0
2019-Jan-03 05:22N 40°51' E 014°16'0 0.0
2019-Jan-03 04:55N 40°51' E 014°16'0 0.0
2019-Jan-03 04:25N 40°51' E 014°16'0 0.0
2019-Jan-03 03:55N 40°51' E 014°16'0 0.0
2019-Jan-03 03:25N 40°51' E 014°16'0 0.0
2019-Jan-03 02:55N 40°51' E 014°16'0 0.0
2019-Jan-03 02:25N 40°51' E 014°16'0 0.0
2019-Jan-03 01:58N 40°51' E 014°16'0 0.0
2019-Jan-03 01:28N 40°51' E 014°16'0 0.0
2019-Jan-03 00:58N 40°51' E 014°16'0 0.0
2019-Jan-03 00:28N 40°51' E 014°16'0 0.0
2019-Jan-02 23:58N 40°51' E 014°16'0 0.0
2019-Jan-02 23:28N 40°51' E 014°16'0 0.0
2019-Jan-02 22:58N 40°51' E 014°16'0 0.0
2019-Jan-02 22:28N 40°51' E 014°16'0 0.0
2019-Jan-02 21:58N 40°51' E 014°16'0 0.0
2019-Jan-02 21:28N 40°51' E 014°16'0 0.0
2019-Jan-02 20:58N 40°51' E 014°16'0 0.0
2019-Jan-02 20:28N 40°51' E 014°16'0 0.0
2019-Jan-02 19:58N 40°51' E 014°16'0 0.0
2019-Jan-02 19:28N 40°51' E 014°16'0 0.0
2019-Jan-02 18:49N 40°51' E 014°16'0 0.0
2019-Jan-02 18:19N 40°51' E 014°16'0 0.0
2019-Jan-02 17:52N 40°51' E 014°16'0 0.0
2019-Jan-02 17:22N 40°51' E 014°16'0 0.0
2019-Jan-02 16:52N 40°51' E 014°16'0 0.0
2019-Jan-02 16:22N 40°51' E 014°16'0 0.0
2019-Jan-02 15:52N 40°51' E 014°16'0 0.0
2019-Jan-02 15:22N 40°51' E 014°16'0 0.0
2019-Jan-02 14:55N 40°51' E 014°16'0 0.0
2019-Jan-02 14:25N 40°51' E 014°16'0 0.0
2019-Jan-02 13:55N 40°51' E 014°16'0 0.0
2019-Jan-02 13:25N 40°51' E 014°16'0 0.0
2019-Jan-02 12:55N 40°51' E 014°16'0 0.0
2019-Jan-02 12:25N 40°51' E 014°16'0 0.0
2019-Jan-02 11:58N 40°51' E 014°16'0 0.0
2019-Jan-02 11:28N 40°51' E 014°16'0 0.0
2019-Jan-02 10:58N 40°51' E 014°16'0 0.0
2019-Jan-02 10:28N 40°51' E 014°16'0 0.0
2019-Jan-02 09:58N 40°51' E 014°16'0 0.0
2019-Jan-02 09:28N 40°51' E 014°16'0 0.0
2019-Jan-02 08:58N 40°51' E 014°16'0 0.0
2019-Jan-02 08:28N 40°51' E 014°16'0 0.0
2019-Jan-02 07:58N 40°51' E 014°16'0 0.0
2019-Jan-02 07:28N 40°51' E 014°16'0 0.0
2019-Jan-02 06:58N 40°51' E 014°16'0 0.0
2019-Jan-02 06:19N 40°51' E 014°16'0 0.0
2019-Jan-02 05:58N 40°51' E 014°16'0 0.0
2019-Jan-02 05:19N 40°51' E 014°16'0 0.0
2019-Jan-02 04:49N 40°51' E 014°16'0 0.0
2019-Jan-02 04:19N 40°51' E 014°16'0 0.0
2019-Jan-02 03:52N 40°51' E 014°16'0 0.0
2019-Jan-02 03:22N 40°51' E 014°16'0 0.0
2019-Jan-02 02:52N 40°51' E 014°16'0 0.0
2019-Jan-02 02:22N 40°51' E 014°16'0 0.0
2019-Jan-02 01:52N 40°51' E 014°16'0 0.0
2019-Jan-02 01:22N 40°51' E 014°16'0 0.0
2019-Jan-02 00:55N 40°51' E 014°16'0 0.0
2019-Jan-02 00:25N 40°51' E 014°16'0 0.0
2019-Jan-01 23:55N 40°51' E 014°16'0 0.0
2019-Jan-01 23:25N 40°51' E 014°16'0 0.0
2019-Jan-01 22:55N 40°51' E 014°16'0 0.0
2019-Jan-01 22:25N 40°51' E 014°16'0 0.0
2019-Jan-01 21:58N 40°51' E 014°16'0 0.0
2019-Jan-01 21:28N 40°51' E 014°16'0 0.0
2019-Jan-01 20:58N 40°51' E 014°16'0 0.0
2019-Jan-01 20:28N 40°51' E 014°16'0 0.0
2019-Jan-01 19:58N 40°51' E 014°16'0 0.0
2019-Jan-01 19:28N 40°51' E 014°16'0 0.0
2019-Jan-01 18:58N 40°51' E 014°16'0 0.0
2019-Jan-01 18:28N 40°51' E 014°16'0 0.0
2019-Jan-01 17:58N 40°51' E 014°16'0 0.0
2019-Jan-01 17:16N 40°51' E 014°16'0 0.0
2019-Jan-01 16:58N 40°51' E 014°16'0 0.0
2019-Jan-01 16:28N 40°51' E 014°16'0 0.0
2019-Jan-01 15:58N 40°51' E 014°16'0 0.0
2019-Jan-01 15:19N 40°51' E 014°16'0 0.0
2019-Jan-01 14:49N 40°51' E 014°16'0 0.0
2019-Jan-01 14:19N 40°51' E 014°16'0 0.0
2019-Jan-01 13:52N 40°51' E 014°16'0 0.0
2019-Jan-01 13:22N 40°51' E 014°16'0 0.0
2019-Jan-01 12:52N 40°51' E 014°16'0 0.0
2019-Jan-01 12:22N 40°51' E 014°16'0 0.0
2019-Jan-01 11:52N 40°51' E 014°16'0 0.0
2019-Jan-01 11:22N 40°51' E 014°16'0 0.0
2019-Jan-01 10:55N 40°51' E 014°16'0 0.0
2019-Jan-01 10:25N 40°51' E 014°16'0 0.0
2019-Jan-01 09:55N 40°51' E 014°16'  

Dump ship's entire track history